sensor_id;sensor_type;location;lat;lon;timestamp;P1;durP1;ratioP1;P2;durP2;ratioP2
50417;SDS011;36346;48.280;14.292;2022-12-11T00:00:58;23.85;;;23.63;;
50417;SDS011;36346;48.280;14.292;2022-12-11T00:03:26;24.21;;;23.92;;
50417;SDS011;36346;48.280;14.292;2022-12-11T00:05:54;23.91;;;23.65;;
50417;SDS011;36346;48.280;14.292;2022-12-11T00:08:22;24.51;;;24.18;;
50417;SDS011;36346;48.280;14.292;2022-12-11T00:10:50;24.10;;;23.75;;
50417;SDS011;36346;48.280;14.292;2022-12-11T00:13:18;23.10;;;22.79;;
50417;SDS011;36346;48.280;14.292;2022-12-11T00:15:46;23.13;;;22.84;;
50417;SDS011;36346;48.280;14.292;2022-12-11T00:18:14;23.39;;;23.19;;
50417;SDS011;36346;48.280;14.292;2022-12-11T00:20:42;24.08;;;23.81;;
50417;SDS011;36346;48.280;14.292;2022-12-11T00:23:10;23.86;;;23.59;;
50417;SDS011;36346;48.280;14.292;2022-12-11T00:25:45;23.90;;;23.57;;
50417;SDS011;36346;48.280;14.292;2022-12-11T00:28:14;22.92;;;22.60;;
50417;SDS011;36346;48.280;14.292;2022-12-11T00:30:46;23.30;;;23.13;;
50417;SDS011;36346;48.280;14.292;2022-12-11T00:33:14;23.22;;;22.92;;
50417;SDS011;36346;48.280;14.292;2022-12-11T00:35:44;22.12;;;22.05;;
50417;SDS011;36346;48.280;14.292;2022-12-11T00:38:17;21.77;;;21.55;;
50417;SDS011;36346;48.280;14.292;2022-12-11T00:40:47;21.07;;;20.93;;
50417;SDS011;36346;48.280;14.292;2022-12-11T00:43:16;21.99;;;21.62;;
50417;SDS011;36346;48.280;14.292;2022-12-11T00:45:44;21.53;;;21.33;;
50417;SDS011;36346;48.280;14.292;2022-12-11T00:48:13;21.25;;;20.92;;
50417;SDS011;36346;48.280;14.292;2022-12-11T00:50:41;23.22;;;22.86;;
50417;SDS011;36346;48.280;14.292;2022-12-11T00:53:09;22.15;;;21.88;;
50417;SDS011;36346;48.280;14.292;2022-12-11T00:55:38;21.24;;;21.00;;
50417;SDS011;36346;48.280;14.292;2022-12-11T00:58:07;20.99;;;20.81;;
50417;SDS011;36346;48.280;14.292;2022-12-11T01:00:36;21.52;;;21.25;;
50417;SDS011;36346;48.280;14.292;2022-12-11T01:03:05;21.89;;;21.60;;
50417;SDS011;36346;48.280;14.292;2022-12-11T01:05:34;22.57;;;22.25;;
50417;SDS011;36346;48.280;14.292;2022-12-11T01:08:02;22.01;;;21.58;;
50417;SDS011;36346;48.280;14.292;2022-12-11T01:10:30;22.45;;;22.06;;
50417;SDS011;36346;48.280;14.292;2022-12-11T01:13:03;21.93;;;21.53;;
50417;SDS011;36346;48.280;14.292;2022-12-11T01:15:34;21.88;;;21.57;;
50417;SDS011;36346;48.280;14.292;2022-12-11T01:18:09;22.57;;;22.08;;
50417;SDS011;36346;48.280;14.292;2022-12-11T01:20:39;23.51;;;22.93;;
50417;SDS011;36346;48.280;14.292;2022-12-11T01:23:09;22.92;;;22.54;;
50417;SDS011;36346;48.280;14.292;2022-12-11T01:25:39;22.34;;;21.97;;
50417;SDS011;36346;48.280;14.292;2022-12-11T01:28:08;22.67;;;22.30;;
50417;SDS011;36346;48.280;14.292;2022-12-11T01:30:36;22.66;;;22.21;;
50417;SDS011;36346;48.280;14.292;2022-12-11T01:33:08;23.69;;;23.04;;
50417;SDS011;36346;48.280;14.292;2022-12-11T01:35:37;23.66;;;23.13;;
50417;SDS011;36346;48.280;14.292;2022-12-11T01:38:06;22.99;;;22.50;;
50417;SDS011;36346;48.280;14.292;2022-12-11T01:40:33;23.10;;;22.70;;
50417;SDS011;36346;48.280;14.292;2022-12-11T01:43:01;23.49;;;23.05;;
50417;SDS011;36346;48.280;14.292;2022-12-11T01:45:31;23.91;;;23.22;;
50417;SDS011;36346;48.280;14.292;2022-12-11T01:48:10;23.83;;;23.23;;
50417;SDS011;36346;48.280;14.292;2022-12-11T01:50:52;23.31;;;22.91;;
50417;SDS011;36346;48.280;14.292;2022-12-11T01:53:33;25.03;;;24.53;;
50417;SDS011;36346;48.280;14.292;2022-12-11T01:56:04;23.80;;;23.41;;
50417;SDS011;36346;48.280;14.292;2022-12-11T01:58:34;23.56;;;22.94;;
50417;SDS011;36346;48.280;14.292;2022-12-11T02:01:11;23.24;;;22.73;;
50417;SDS011;36346;48.280;14.292;2022-12-11T02:03:45;22.69;;;22.28;;
50417;SDS011;36346;48.280;14.292;2022-12-11T02:06:30;22.38;;;21.97;;
50417;SDS011;36346;48.280;14.292;2022-12-11T02:09:00;22.54;;;22.13;;
50417;SDS011;36346;48.280;14.292;2022-12-11T02:11:46;22.79;;;22.41;;
50417;SDS011;36346;48.280;14.292;2022-12-11T02:17:17;21.92;;;21.46;;
50417;SDS011;36346;48.280;14.292;2022-12-11T02:19:58;22.57;;;22.25;;
50417;SDS011;36346;48.280;14.292;2022-12-11T02:28:12;23.52;;;22.90;;
50417;SDS011;36346;48.280;14.292;2022-12-11T02:30:46;23.67;;;23.05;;
50417;SDS011;36346;48.280;14.292;2022-12-11T02:33:24;24.55;;;23.92;;
50417;SDS011;36346;48.280;14.292;2022-12-11T02:36:16;24.65;;;23.92;;
50417;SDS011;36346;48.280;14.292;2022-12-11T02:38:47;24.29;;;23.85;;
50417;SDS011;36346;48.280;14.292;2022-12-11T02:41:19;24.77;;;24.29;;
50417;SDS011;36346;48.280;14.292;2022-12-11T02:43:49;25.91;;;25.31;;
50417;SDS011;36346;48.280;14.292;2022-12-11T02:46:18;26.19;;;25.45;;
50417;SDS011;36346;48.280;14.292;2022-12-11T02:48:49;25.98;;;25.19;;
50417;SDS011;36346;48.280;14.292;2022-12-11T02:51:20;25.51;;;24.85;;
50417;SDS011;36346;48.280;14.292;2022-12-11T02:53:53;26.04;;;25.44;;
50417;SDS011;36346;48.280;14.292;2022-12-11T02:56:28;25.52;;;24.89;;
50417;SDS011;36346;48.280;14.292;2022-12-11T02:59:03;24.76;;;24.26;;
50417;SDS011;36346;48.280;14.292;2022-12-11T03:01:35;25.92;;;25.36;;
50417;SDS011;36346;48.280;14.292;2022-12-11T03:04:04;26.39;;;25.82;;
50417;SDS011;36346;48.280;14.292;2022-12-11T03:06:34;24.77;;;24.26;;
50417;SDS011;36346;48.280;14.292;2022-12-11T03:09:04;25.67;;;25.04;;
50417;SDS011;36346;48.280;14.292;2022-12-11T03:11:32;25.63;;;25.08;;
50417;SDS011;36346;48.280;14.292;2022-12-11T03:14:00;25.47;;;25.03;;
50417;SDS011;36346;48.280;14.292;2022-12-11T03:16:35;25.70;;;25.14;;
50417;SDS011;36346;48.280;14.292;2022-12-11T03:19:09;25.70;;;25.24;;
50417;SDS011;36346;48.280;14.292;2022-12-11T03:21:49;24.99;;;24.58;;
50417;SDS011;36346;48.280;14.292;2022-12-11T03:30:02;24.37;;;23.79;;
50417;SDS011;36346;48.280;14.292;2022-12-11T03:32:45;24.94;;;24.44;;
50417;SDS011;36346;48.280;14.292;2022-12-11T03:35:23;25.13;;;24.64;;
50417;SDS011;36346;48.280;14.292;2022-12-11T03:37:56;24.99;;;24.50;;
50417;SDS011;36346;48.280;14.292;2022-12-11T03:40:33;24.39;;;23.89;;
50417;SDS011;36346;48.280;14.292;2022-12-11T03:43:03;23.04;;;22.69;;
50417;SDS011;36346;48.280;14.292;2022-12-11T03:45:33;23.95;;;23.54;;
50417;SDS011;36346;48.280;14.292;2022-12-11T03:48:05;23.96;;;23.53;;
50417;SDS011;36346;48.280;14.292;2022-12-11T03:50:36;24.53;;;23.96;;
50417;SDS011;36346;48.280;14.292;2022-12-11T03:53:06;24.02;;;23.46;;
50417;SDS011;36346;48.280;14.292;2022-12-11T03:55:35;24.43;;;23.83;;
50417;SDS011;36346;48.280;14.292;2022-12-11T03:58:04;25.13;;;24.55;;
50417;SDS011;36346;48.280;14.292;2022-12-11T04:00:33;25.75;;;25.08;;
50417;SDS011;36346;48.280;14.292;2022-12-11T04:03:01;26.07;;;25.55;;
50417;SDS011;36346;48.280;14.292;2022-12-11T04:05:48;25.18;;;24.75;;
50417;SDS011;36346;48.280;14.292;2022-12-11T04:08:18;25.95;;;25.43;;
50417;SDS011;36346;48.280;14.292;2022-12-11T04:10:49;25.65;;;25.01;;
50417;SDS011;36346;48.280;14.292;2022-12-11T04:13:38;26.87;;;26.33;;
50417;SDS011;36346;48.280;14.292;2022-12-11T04:16:07;26.40;;;25.89;;
50417;SDS011;36346;48.280;14.292;2022-12-11T04:18:35;27.18;;;26.53;;
50417;SDS011;36346;48.280;14.292;2022-12-11T04:21:22;27.31;;;26.75;;
50417;SDS011;36346;48.280;14.292;2022-12-11T04:24:08;27.15;;;26.57;;
50417;SDS011;36346;48.280;14.292;2022-12-11T04:26:43;28.03;;;27.47;;
50417;SDS011;36346;48.280;14.292;2022-12-11T04:29:13;28.23;;;27.51;;
50417;SDS011;36346;48.280;14.292;2022-12-11T04:31:41;28.86;;;28.37;;
50417;SDS011;36346;48.280;14.292;2022-12-11T04:34:09;29.15;;;28.65;;
50417;SDS011;36346;48.280;14.292;2022-12-11T04:36:37;29.91;;;29.27;;
50417;SDS011;36346;48.280;14.292;2022-12-11T04:39:05;30.03;;;29.36;;
50417;SDS011;36346;48.280;14.292;2022-12-11T04:41:33;31.35;;;30.55;;
50417;SDS011;36346;48.280;14.292;2022-12-11T04:44:00;31.88;;;31.06;;
50417;SDS011;36346;48.280;14.292;2022-12-11T04:46:29;32.97;;;32.05;;
50417;SDS011;36346;48.280;14.292;2022-12-11T04:48:57;33.86;;;33.15;;
50417;SDS011;36346;48.280;14.292;2022-12-11T04:51:27;35.25;;;34.30;;
50417;SDS011;36346;48.280;14.292;2022-12-11T04:53:55;35.51;;;34.34;;
50417;SDS011;36346;48.280;14.292;2022-12-11T04:56:24;35.13;;;34.12;;
50417;SDS011;36346;48.280;14.292;2022-12-11T04:58:52;37.42;;;36.30;;
50417;SDS011;36346;48.280;14.292;2022-12-11T05:01:20;35.82;;;34.76;;
50417;SDS011;36346;48.280;14.292;2022-12-11T05:03:49;35.87;;;34.68;;
50417;SDS011;36346;48.280;14.292;2022-12-11T05:06:17;35.24;;;33.93;;
50417;SDS011;36346;48.280;14.292;2022-12-11T05:08:45;35.51;;;34.24;;
50417;SDS011;36346;48.280;14.292;2022-12-11T05:11:14;34.20;;;33.12;;
50417;SDS011;36346;48.280;14.292;2022-12-11T05:13:42;33.40;;;32.45;;
50417;SDS011;36346;48.280;14.292;2022-12-11T05:16:12;33.21;;;32.10;;
50417;SDS011;36346;48.280;14.292;2022-12-11T05:18:42;32.97;;;31.95;;
50417;SDS011;36346;48.280;14.292;2022-12-11T05:21:11;33.21;;;32.13;;
50417;SDS011;36346;48.280;14.292;2022-12-11T05:23:40;31.83;;;30.75;;
50417;SDS011;36346;48.280;14.292;2022-12-11T05:26:16;32.20;;;31.10;;
50417;SDS011;36346;48.280;14.292;2022-12-11T05:28:49;31.99;;;30.90;;
50417;SDS011;36346;48.280;14.292;2022-12-11T05:31:21;32.00;;;31.19;;
50417;SDS011;36346;48.280;14.292;2022-12-11T05:33:51;32.55;;;31.50;;
50417;SDS011;36346;48.280;14.292;2022-12-11T05:36:24;32.06;;;31.03;;
50417;SDS011;36346;48.280;14.292;2022-12-11T05:38:57;32.17;;;31.15;;
50417;SDS011;36346;48.280;14.292;2022-12-11T05:41:27;31.82;;;30.91;;
50417;SDS011;36346;48.280;14.292;2022-12-11T05:43:56;31.85;;;30.86;;
50417;SDS011;36346;48.280;14.292;2022-12-11T05:46:25;32.20;;;31.13;;
50417;SDS011;36346;48.280;14.292;2022-12-11T05:48:55;31.86;;;30.79;;
50417;SDS011;36346;48.280;14.292;2022-12-11T05:51:25;31.31;;;30.24;;
50417;SDS011;36346;48.280;14.292;2022-12-11T05:53:54;30.96;;;30.13;;
50417;SDS011;36346;48.280;14.292;2022-12-11T05:56:27;31.70;;;30.89;;
50417;SDS011;36346;48.280;14.292;2022-12-11T05:58:57;32.19;;;31.41;;
50417;SDS011;36346;48.280;14.292;2022-12-11T06:01:44;31.51;;;30.56;;
50417;SDS011;36346;48.280;14.292;2022-12-11T06:04:12;32.34;;;31.29;;
50417;SDS011;36346;48.280;14.292;2022-12-11T06:06:40;31.63;;;30.69;;
50417;SDS011;36346;48.280;14.292;2022-12-11T06:09:12;31.49;;;30.56;;
50417;SDS011;36346;48.280;14.292;2022-12-11T06:11:41;31.74;;;30.76;;
50417;SDS011;36346;48.280;14.292;2022-12-11T06:14:10;31.93;;;31.05;;
50417;SDS011;36346;48.280;14.292;2022-12-11T06:16:39;31.97;;;30.99;;
50417;SDS011;36346;48.280;14.292;2022-12-11T06:19:11;32.17;;;31.11;;
50417;SDS011;36346;48.280;14.292;2022-12-11T06:21:41;34.58;;;33.62;;
50417;SDS011;36346;48.280;14.292;2022-12-11T06:24:09;35.38;;;34.08;;
50417;SDS011;36346;48.280;14.292;2022-12-11T06:26:37;35.25;;;33.93;;
50417;SDS011;36346;48.280;14.292;2022-12-11T06:29:05;35.41;;;34.13;;
50417;SDS011;36346;48.280;14.292;2022-12-11T06:31:39;34.70;;;33.45;;
50417;SDS011;36346;48.280;14.292;2022-12-11T06:34:07;33.85;;;32.84;;
50417;SDS011;36346;48.280;14.292;2022-12-11T06:36:35;33.94;;;33.04;;
50417;SDS011;36346;48.280;14.292;2022-12-11T06:39:03;32.42;;;31.43;;
50417;SDS011;36346;48.280;14.292;2022-12-11T06:41:31;31.75;;;30.94;;
50417;SDS011;36346;48.280;14.292;2022-12-11T06:43:59;32.13;;;30.91;;
50417;SDS011;36346;48.280;14.292;2022-12-11T06:46:27;31.37;;;30.46;;
50417;SDS011;36346;48.280;14.292;2022-12-11T06:48:55;31.96;;;30.83;;
50417;SDS011;36346;48.280;14.292;2022-12-11T06:51:23;32.28;;;30.98;;
50417;SDS011;36346;48.280;14.292;2022-12-11T06:53:51;31.25;;;30.34;;
50417;SDS011;36346;48.280;14.292;2022-12-11T06:56:20;31.40;;;30.50;;
50417;SDS011;36346;48.280;14.292;2022-12-11T06:58:50;31.81;;;30.99;;
50417;SDS011;36346;48.280;14.292;2022-12-11T07:01:19;31.55;;;30.64;;
50417;SDS011;36346;48.280;14.292;2022-12-11T07:03:51;31.45;;;30.44;;
50417;SDS011;36346;48.280;14.292;2022-12-11T07:06:20;31.65;;;30.61;;
50417;SDS011;36346;48.280;14.292;2022-12-11T07:08:49;31.37;;;30.44;;
50417;SDS011;36346;48.280;14.292;2022-12-11T07:11:17;31.50;;;30.52;;
50417;SDS011;36346;48.280;14.292;2022-12-11T07:13:46;31.16;;;30.10;;
50417;SDS011;36346;48.280;14.292;2022-12-11T07:16:15;31.64;;;30.54;;
50417;SDS011;36346;48.280;14.292;2022-12-11T07:18:48;31.29;;;30.47;;
50417;SDS011;36346;48.280;14.292;2022-12-11T07:21:17;31.10;;;30.25;;
50417;SDS011;36346;48.280;14.292;2022-12-11T07:23:47;29.68;;;28.91;;
50417;SDS011;36346;48.280;14.292;2022-12-11T07:26:17;29.99;;;29.19;;
50417;SDS011;36346;48.280;14.292;2022-12-11T07:28:47;29.87;;;29.08;;
50417;SDS011;36346;48.280;14.292;2022-12-11T07:31:21;30.07;;;29.37;;
50417;SDS011;36346;48.280;14.292;2022-12-11T07:33:55;29.76;;;29.04;;
50417;SDS011;36346;48.280;14.292;2022-12-11T07:36:27;29.76;;;28.99;;
50417;SDS011;36346;48.280;14.292;2022-12-11T07:38:55;30.22;;;29.37;;
50417;SDS011;36346;48.280;14.292;2022-12-11T07:41:24;30.49;;;29.59;;
50417;SDS011;36346;48.280;14.292;2022-12-11T07:43:54;30.19;;;29.22;;
50417;SDS011;36346;48.280;14.292;2022-12-11T07:46:23;32.98;;;31.94;;
50417;SDS011;36346;48.280;14.292;2022-12-11T07:48:52;30.31;;;29.25;;
50417;SDS011;36346;48.280;14.292;2022-12-11T07:51:21;30.12;;;29.08;;
50417;SDS011;36346;48.280;14.292;2022-12-11T07:53:57;29.52;;;28.82;;
50417;SDS011;36346;48.280;14.292;2022-12-11T07:56:27;29.42;;;28.69;;
50417;SDS011;36346;48.280;14.292;2022-12-11T07:58:58;31.96;;;30.55;;
50417;SDS011;36346;48.280;14.292;2022-12-11T08:01:27;31.27;;;30.12;;
50417;SDS011;36346;48.280;14.292;2022-12-11T08:03:56;30.17;;;29.39;;
50417;SDS011;36346;48.280;14.292;2022-12-11T08:06:25;29.99;;;29.01;;
50417;SDS011;36346;48.280;14.292;2022-12-11T08:08:56;29.98;;;29.18;;
50417;SDS011;36346;48.280;14.292;2022-12-11T08:11:25;29.78;;;28.94;;
50417;SDS011;36346;48.280;14.292;2022-12-11T08:13:54;29.68;;;28.83;;
50417;SDS011;36346;48.280;14.292;2022-12-11T08:16:22;29.83;;;28.81;;
50417;SDS011;36346;48.280;14.292;2022-12-11T08:18:50;29.41;;;28.58;;
50417;SDS011;36346;48.280;14.292;2022-12-11T08:21:19;29.65;;;28.97;;
50417;SDS011;36346;48.280;14.292;2022-12-11T08:23:49;28.76;;;28.11;;
50417;SDS011;36346;48.280;14.292;2022-12-11T08:26:22;29.42;;;28.65;;
50417;SDS011;36346;48.280;14.292;2022-12-11T08:28:51;29.42;;;28.43;;
50417;SDS011;36346;48.280;14.292;2022-12-11T08:31:20;28.88;;;27.99;;
50417;SDS011;36346;48.280;14.292;2022-12-11T08:33:48;28.67;;;27.96;;
50417;SDS011;36346;48.280;14.292;2022-12-11T08:36:20;29.11;;;28.19;;
50417;SDS011;36346;48.280;14.292;2022-12-11T08:38:49;28.33;;;27.53;;
50417;SDS011;36346;48.280;14.292;2022-12-11T08:41:19;28.23;;;27.45;;
50417;SDS011;36346;48.280;14.292;2022-12-11T08:43:53;28.46;;;27.70;;
50417;SDS011;36346;48.280;14.292;2022-12-11T08:46:22;29.07;;;28.25;;
50417;SDS011;36346;48.280;14.292;2022-12-11T08:48:53;29.30;;;28.58;;
50417;SDS011;36346;48.280;14.292;2022-12-11T08:51:24;28.39;;;27.52;;
50417;SDS011;36346;48.280;14.292;2022-12-11T08:53:58;27.97;;;27.39;;
50417;SDS011;36346;48.280;14.292;2022-12-11T08:56:28;29.22;;;28.41;;
50417;SDS011;36346;48.280;14.292;2022-12-11T08:58:58;28.11;;;27.26;;
50417;SDS011;36346;48.280;14.292;2022-12-11T09:01:27;27.39;;;26.77;;
50417;SDS011;36346;48.280;14.292;2022-12-11T09:03:56;26.63;;;26.01;;
50417;SDS011;36346;48.280;14.292;2022-12-11T09:06:25;26.72;;;26.04;;
50417;SDS011;36346;48.280;14.292;2022-12-11T09:08:54;24.68;;;24.23;;
50417;SDS011;36346;48.280;14.292;2022-12-11T09:11:24;25.85;;;25.24;;
50417;SDS011;36346;48.280;14.292;2022-12-11T09:13:54;25.05;;;24.53;;
50417;SDS011;36346;48.280;14.292;2022-12-11T09:16:23;25.14;;;24.53;;
50417;SDS011;36346;48.280;14.292;2022-12-11T09:18:52;25.49;;;24.78;;
50417;SDS011;36346;48.280;14.292;2022-12-11T09:21:24;23.33;;;22.80;;
50417;SDS011;36346;48.280;14.292;2022-12-11T09:23:54;22.03;;;21.54;;
50417;SDS011;36346;48.280;14.292;2022-12-11T09:26:24;23.39;;;22.71;;
50417;SDS011;36346;48.280;14.292;2022-12-11T09:28:54;23.57;;;23.12;;
50417;SDS011;36346;48.280;14.292;2022-12-11T09:31:23;23.15;;;22.50;;
50417;SDS011;36346;48.280;14.292;2022-12-11T09:33:53;23.28;;;22.58;;
50417;SDS011;36346;48.280;14.292;2022-12-11T09:36:23;21.98;;;21.33;;
50417;SDS011;36346;48.280;14.292;2022-12-11T09:38:51;23.40;;;22.82;;
50417;SDS011;36346;48.280;14.292;2022-12-11T09:46:40;22.72;;;22.12;;
50417;SDS011;36346;48.280;14.292;2022-12-11T09:52:12;22.18;;;21.60;;
50417;SDS011;36346;48.280;14.292;2022-12-11T09:54:52;22.74;;;22.14;;
50417;SDS011;36346;48.280;14.292;2022-12-11T09:57:30;22.63;;;22.16;;
50417;SDS011;36346;48.280;14.292;2022-12-11T10:00:57;23.38;;;22.78;;
50417;SDS011;36346;48.280;14.292;2022-12-11T10:03:28;22.20;;;21.76;;
50417;SDS011;36346;48.280;14.292;2022-12-11T10:08:38;21.90;;;21.41;;
50417;SDS011;36346;48.280;14.292;2022-12-11T10:16:59;22.51;;;22.00;;
50417;SDS011;36346;48.280;14.292;2022-12-11T10:19:33;22.39;;;21.81;;
50417;SDS011;36346;48.280;14.292;2022-12-11T10:22:02;21.90;;;21.42;;
50417;SDS011;36346;48.280;14.292;2022-12-11T10:24:41;21.64;;;21.11;;
50417;SDS011;36346;48.280;14.292;2022-12-11T10:27:38;21.59;;;21.23;;
50417;SDS011;36346;48.280;14.292;2022-12-11T10:30:18;21.95;;;21.47;;
50417;SDS011;36346;48.280;14.292;2022-12-11T10:41:02;22.56;;;22.14;;
50417;SDS011;36346;48.280;14.292;2022-12-11T10:43:39;23.27;;;22.71;;
50417;SDS011;36346;48.280;14.292;2022-12-11T10:46:17;22.21;;;21.71;;
50417;SDS011;36346;48.280;14.292;2022-12-11T10:49:00;22.81;;;22.38;;
50417;SDS011;36346;48.280;14.292;2022-12-11T10:54:06;23.09;;;22.58;;
50417;SDS011;36346;48.280;14.292;2022-12-11T10:56:44;23.93;;;23.39;;
50417;SDS011;36346;48.280;14.292;2022-12-11T11:02:30;24.76;;;24.24;;
50417;SDS011;36346;48.280;14.292;2022-12-11T11:05:10;25.08;;;24.62;;
50417;SDS011;36346;48.280;14.292;2022-12-11T11:07:43;25.36;;;24.78;;
50417;SDS011;36346;48.280;14.292;2022-12-11T11:12:41;26.51;;;25.96;;
50417;SDS011;36346;48.280;14.292;2022-12-11T11:15:13;29.82;;;29.19;;
50417;SDS011;36346;48.280;14.292;2022-12-11T11:17:48;30.30;;;29.62;;
50417;SDS011;36346;48.280;14.292;2022-12-11T11:20:23;27.07;;;26.40;;
50417;SDS011;36346;48.280;14.292;2022-12-11T11:22:55;27.87;;;27.38;;
50417;SDS011;36346;48.280;14.292;2022-12-11T11:25:25;27.56;;;27.00;;
50417;SDS011;36346;48.280;14.292;2022-12-11T11:28:05;27.89;;;27.37;;
50417;SDS011;36346;48.280;14.292;2022-12-11T11:30:41;27.34;;;26.69;;
50417;SDS011;36346;48.280;14.292;2022-12-11T11:33:32;26.50;;;26.00;;
50417;SDS011;36346;48.280;14.292;2022-12-11T11:36:04;25.72;;;25.08;;
50417;SDS011;36346;48.280;14.292;2022-12-11T11:38:49;26.31;;;25.68;;
50417;SDS011;36346;48.280;14.292;2022-12-11T11:41:31;26.44;;;25.69;;
50417;SDS011;36346;48.280;14.292;2022-12-11T11:44:26;26.86;;;26.20;;
50417;SDS011;36346;48.280;14.292;2022-12-11T11:47:01;27.47;;;26.67;;
50417;SDS011;36346;48.280;14.292;2022-12-11T11:55:05;25.43;;;24.95;;
50417;SDS011;36346;48.280;14.292;2022-12-11T12:00:30;26.72;;;26.03;;
50417;SDS011;36346;48.280;14.292;2022-12-11T12:03:14;25.98;;;25.52;;
50417;SDS011;36346;48.280;14.292;2022-12-11T12:11:05;25.13;;;24.58;;
50417;SDS011;36346;48.280;14.292;2022-12-11T12:14:02;24.23;;;23.73;;
50417;SDS011;36346;48.280;14.292;2022-12-11T12:17:02;26.12;;;25.54;;
50417;SDS011;36346;48.280;14.292;2022-12-11T12:22:22;25.41;;;25.05;;
50417;SDS011;36346;48.280;14.292;2022-12-11T12:47:42;23.21;;;22.76;;
50417;SDS011;36346;48.280;14.292;2022-12-11T12:50:20;24.00;;;23.38;;
50417;SDS011;36346;48.280;14.292;2022-12-11T12:52:51;23.10;;;22.61;;
50417;SDS011;36346;48.280;14.292;2022-12-11T12:55:24;23.15;;;22.73;;
50417;SDS011;36346;48.280;14.292;2022-12-11T12:57:56;23.36;;;22.90;;
50417;SDS011;36346;48.280;14.292;2022-12-11T13:03:24;24.22;;;23.51;;
50417;SDS011;36346;48.280;14.292;2022-12-11T13:08:27;24.54;;;24.03;;
50417;SDS011;36346;48.280;14.292;2022-12-11T13:11:02;25.33;;;24.73;;
50417;SDS011;36346;48.280;14.292;2022-12-11T13:13:37;24.76;;;24.18;;
50417;SDS011;36346;48.280;14.292;2022-12-11T13:18:42;24.56;;;23.99;;
50417;SDS011;36346;48.280;14.292;2022-12-11T13:26:49;25.73;;;25.19;;
50417;SDS011;36346;48.280;14.292;2022-12-11T13:34:38;25.42;;;25.05;;
50417;SDS011;36346;48.280;14.292;2022-12-11T13:39:59;24.15;;;23.82;;
50417;SDS011;36346;48.280;14.292;2022-12-11T13:42:37;25.59;;;25.19;;
50417;SDS011;36346;48.280;14.292;2022-12-11T13:45:26;27.51;;;26.97;;
50417;SDS011;36346;48.280;14.292;2022-12-11T13:47:59;26.86;;;26.41;;
50417;SDS011;36346;48.280;14.292;2022-12-11T13:50:29;25.55;;;25.10;;
50417;SDS011;36346;48.280;14.292;2022-12-11T13:52:59;23.96;;;23.49;;
50417;SDS011;36346;48.280;14.292;2022-12-11T13:55:29;24.98;;;24.49;;
50417;SDS011;36346;48.280;14.292;2022-12-11T13:57:59;24.51;;;24.02;;
50417;SDS011;36346;48.280;14.292;2022-12-11T14:00:28;25.42;;;24.99;;
50417;SDS011;36346;48.280;14.292;2022-12-11T14:03:00;23.68;;;23.16;;
50417;SDS011;36346;48.280;14.292;2022-12-11T14:05:33;24.87;;;24.51;;
50417;SDS011;36346;48.280;14.292;2022-12-11T14:08:05;24.14;;;23.74;;
50417;SDS011;36346;48.280;14.292;2022-12-11T14:10:37;23.19;;;22.78;;
50417;SDS011;36346;48.280;14.292;2022-12-11T14:13:21;23.03;;;22.58;;
50417;SDS011;36346;48.280;14.292;2022-12-11T14:15:52;23.69;;;23.28;;
50417;SDS011;36346;48.280;14.292;2022-12-11T14:18:22;23.66;;;23.21;;
50417;SDS011;36346;48.280;14.292;2022-12-11T14:20:53;23.29;;;22.70;;
50417;SDS011;36346;48.280;14.292;2022-12-11T14:23:32;23.20;;;22.70;;
50417;SDS011;36346;48.280;14.292;2022-12-11T14:26:16;23.59;;;23.13;;
50417;SDS011;36346;48.280;14.292;2022-12-11T14:28:46;22.84;;;22.35;;
50417;SDS011;36346;48.280;14.292;2022-12-11T14:31:15;23.20;;;22.83;;
50417;SDS011;36346;48.280;14.292;2022-12-11T14:33:51;24.15;;;23.73;;
50417;SDS011;36346;48.280;14.292;2022-12-11T14:36:24;25.17;;;24.70;;
50417;SDS011;36346;48.280;14.292;2022-12-11T14:38:54;26.87;;;26.26;;
50417;SDS011;36346;48.280;14.292;2022-12-11T14:41:46;26.13;;;25.74;;
50417;SDS011;36346;48.280;14.292;2022-12-11T14:44:19;25.01;;;24.65;;
50417;SDS011;36346;48.280;14.292;2022-12-11T14:46:52;25.85;;;25.28;;
50417;SDS011;36346;48.280;14.292;2022-12-11T14:49:36;26.59;;;25.97;;
50417;SDS011;36346;48.280;14.292;2022-12-11T14:52:18;25.54;;;25.11;;
50417;SDS011;36346;48.280;14.292;2022-12-11T14:54:54;25.78;;;25.31;;
50417;SDS011;36346;48.280;14.292;2022-12-11T14:57:28;25.63;;;25.09;;
50417;SDS011;36346;48.280;14.292;2022-12-11T15:00:01;27.15;;;26.62;;
50417;SDS011;36346;48.280;14.292;2022-12-11T15:02:32;26.68;;;26.02;;
50417;SDS011;36346;48.280;14.292;2022-12-11T15:05:15;27.31;;;26.76;;
50417;SDS011;36346;48.280;14.292;2022-12-11T15:07:52;25.90;;;25.38;;
50417;SDS011;36346;48.280;14.292;2022-12-11T15:10:29;29.84;;;29.17;;
50417;SDS011;36346;48.280;14.292;2022-12-11T15:13:24;34.22;;;33.55;;
50417;SDS011;36346;48.280;14.292;2022-12-11T15:15:52;28.74;;;28.10;;
50417;SDS011;36346;48.280;14.292;2022-12-11T15:18:29;28.31;;;27.69;;
50417;SDS011;36346;48.280;14.292;2022-12-11T15:21:04;28.95;;;28.23;;
50417;SDS011;36346;48.280;14.292;2022-12-11T15:26:13;30.86;;;30.31;;
50417;SDS011;36346;48.280;14.292;2022-12-11T15:28:41;30.64;;;29.93;;
50417;SDS011;36346;48.280;14.292;2022-12-11T15:31:26;30.45;;;29.72;;
50417;SDS011;36346;48.280;14.292;2022-12-11T15:33:56;31.39;;;30.75;;
50417;SDS011;36346;48.280;14.292;2022-12-11T15:36:30;31.37;;;30.39;;
50417;SDS011;36346;48.280;14.292;2022-12-11T15:39:02;31.57;;;30.88;;
50417;SDS011;36346;48.280;14.292;2022-12-11T15:41:32;30.90;;;30.39;;
50417;SDS011;36346;48.280;14.292;2022-12-11T15:44:02;31.82;;;31.07;;
50417;SDS011;36346;48.280;14.292;2022-12-11T15:46:34;30.22;;;29.56;;
50417;SDS011;36346;48.280;14.292;2022-12-11T15:49:04;31.38;;;30.47;;
50417;SDS011;36346;48.280;14.292;2022-12-11T15:51:38;30.76;;;30.02;;
50417;SDS011;36346;48.280;14.292;2022-12-11T15:54:10;31.13;;;30.30;;
50417;SDS011;36346;48.280;14.292;2022-12-11T15:56:38;32.16;;;31.24;;
50417;SDS011;36346;48.280;14.292;2022-12-11T15:59:06;31.15;;;30.44;;
50417;SDS011;36346;48.280;14.292;2022-12-11T16:01:34;30.80;;;30.05;;
50417;SDS011;36346;48.280;14.292;2022-12-11T16:04:02;29.46;;;28.88;;
50417;SDS011;36346;48.280;14.292;2022-12-11T16:06:32;29.16;;;28.55;;
50417;SDS011;36346;48.280;14.292;2022-12-11T16:09:00;29.16;;;28.48;;
50417;SDS011;36346;48.280;14.292;2022-12-11T16:11:30;27.90;;;27.37;;
50417;SDS011;36346;48.280;14.292;2022-12-11T16:13:58;28.37;;;27.65;;
50417;SDS011;36346;48.280;14.292;2022-12-11T16:16:30;28.93;;;28.39;;
50417;SDS011;36346;48.280;14.292;2022-12-11T16:18:58;28.08;;;27.75;;
50417;SDS011;36346;48.280;14.292;2022-12-11T16:21:27;28.65;;;28.17;;
50417;SDS011;36346;48.280;14.292;2022-12-11T16:23:55;28.96;;;28.35;;
50417;SDS011;36346;48.280;14.292;2022-12-11T16:26:23;28.70;;;28.07;;
50417;SDS011;36346;48.280;14.292;2022-12-11T16:28:50;30.15;;;29.40;;